LETO/TOJ METAR and TAF weather

Enter ICAO airport designator
Station Type Date Time Source
LETO METAR 2023/02/05 14:30 UTC NOAA

LETO 051430Z 00000KT CAVOK 19/M08 Q1029 NOSIG


Station Type Date Time Source
LETO Decoded METAR 2023/02/05 14:30 UTC NOAA

Madrid / Torrejon, Spain (LETO) 40-29N 003-27W 611M
Feb 05, 2023 - 09:30 AM EST / 2023.02.05 1430 UTC
Wind: Calm:0
Visibility: greater than 7 mile(s):0
Temperature: 66 F (19 C)
Dew Point: 17 F (-8 C)
Relative Humidity: 15%
Pressure (altimeter): 30.39 in. Hg (1029 hPa)
ob: LETO 051430Z 00000KT CAVOK 19/M08 Q1029 NOSIG
cycle: 14

Station Type Date Time Source
LETO TAF 2023/02/05 12:27 UTC NOAA

TAF LETO 051100Z 0512/0612 VRB05KT CAVOK TX18/0515Z TNM01/0606Z PROB40
TEMPO 0512/0517 05010KT PROB30
TEMPO 0517/0610 34006KT PROB40
TEMPO 0611/0612 07015G35KT

Example: see airport list